Time,TemperatureF,DewpointF,PressureIn,WindDirection,WindDirectionDegrees,WindSpeedMPH,WindSpeedGustMPH,Humidity,HourlyPrecipIn,Conditions,Clouds,dailyrainin,SoftwareType,DateUTC
2013-08-19 00:11:00,61.5,59.0,30.06,NNW,334,0.0,0.0,91,0.00,,,0.00,weatherlink.com 1.10,2013-08-19 04:11:00,
2013-08-19 00:26:00,61.2,59.0,30.06,NNW,334,0.0,0.0,92,0.00,,,0.00,weatherlink.com 1.10,2013-08-19 04:26:00,
2013-08-19 00:41:00,61.1,59.0,30.06,NNW,335,0.0,0.0,92,0.00,,,0.00,weatherlink.com 1.10,2013-08-19 04:41:00,
2013-08-19 01:11:00,60.3,58.0,30.06,NNW,334,0.0,0.0,93,0.00,,,0.00,weatherlink.com 1.10,2013-08-19 05:11:00,
2013-08-19 01:26:00,59.9,58.0,30.05,NNW,334,0.0,0.0,93,0.00,,,0.00,weatherlink.com 1.10,2013-08-19 05:26:00,
2013-08-19 01:41:00,59.4,57.0,30.05,NNW,334,0.0,0.0,93,0.00,,,0.00,weatherlink.com 1.10,2013-08-19 05:41:00,
2013-08-19 01:56:00,58.9,57.0,30.05,NNW,334,0.0,0.0,93,0.00,,,0.00,weatherlink.com 1.10,2013-08-19 05:56:00,
2013-08-19 02:11:00,58.4,57.0,30.04,NNW,334,0.0,0.0,94,0.00,,,0.00,weatherlink.com 1.10,2013-08-19 06:11:00,
2013-08-19 02:26:00,58.2,57.0,30.04,NNW,334,0.0,0.0,94,0.00,,,0.00,weatherlink.com 1.10,2013-08-19 06:26:00,
2013-08-19 02:41:00,58.3,57.0,30.04,NNW,334,0.0,0.0,95,0.00,,,0.00,weatherlink.com 1.10,2013-08-19 06:41:00,
2013-08-19 02:56:00,58.3,57.0,30.04,NNW,334,0.0,0.0,95,0.00,,,0.00,weatherlink.com 1.10,2013-08-19 06:56:00,
2013-08-19 03:11:00,58.1,57.0,30.04,NNW,334,0.0,0.0,95,0.00,,,0.00,weatherlink.com 1.10,2013-08-19 07:11:00,
2013-08-19 03:26:00,57.8,56.0,30.03,NNW,335,0.0,0.0,95,0.00,,,0.00,weatherlink.com 1.10,2013-08-19 07:26:00,
2013-08-19 03:41:00,57.5,56.0,30.04,NNW,334,0.0,0.0,95,0.00,,,0.00,weatherlink.com 1.10,2013-08-19 07:41:00,
2013-08-19 03:57:00,57.4,56.0,30.04,NNW,334,0.0,0.0,95,0.00,,,0.00,weatherlink.com 1.10,2013-08-19 07:57:00,
2013-08-19 04:12:00,57.4,56.0,30.03,NNW,334,0.0,0.0,95,0.00,,,0.00,weatherlink.com 1.10,2013-08-19 08:12:00,
2013-08-19 04:27:00,57.1,56.0,30.03,NNW,334,0.0,0.0,95,0.00,,,0.00,weatherlink.com 1.10,2013-08-19 08:27:00,
2013-08-19 04:42:00,56.8,55.0,30.03,NNW,334,0.0,0.0,95,0.00,,,0.00,weatherlink.com 1.10,2013-08-19 08:42:00,
2013-08-19 04:57:00,56.6,55.0,30.03,NNW,334,0.0,0.0,95,0.00,,,0.00,weatherlink.com 1.10,2013-08-19 08:57:00,
2013-08-19 05:12:00,56.5,55.0,30.03,NNW,334,0.0,0.0,96,0.00,,,0.00,weatherlink.com 1.10,2013-08-19 09:12:00,
2013-08-19 05:27:00,56.5,55.0,30.03,NNW,334,0.0,0.0,96,0.00,,,0.00,weatherlink.com 1.10,2013-08-19 09:27:00,
2013-08-19 05:42:00,56.2,55.0,30.04,NNW,334,0.0,0.0,96,0.00,,,0.00,weatherlink.com 1.10,2013-08-19 09:42:00,
2013-08-19 05:57:00,55.9,55.0,30.03,NNW,335,0.0,0.0,95,0.00,,,0.00,weatherlink.com 1.10,2013-08-19 09:57:00,
2013-08-19 06:12:00,55.8,55.0,30.04,NNW,334,0.0,0.0,96,0.00,,,0.00,weatherlink.com 1.10,2013-08-19 10:12:00,
2013-08-19 06:27:00,55.9,55.0,30.03,NNW,334,0.0,0.0,96,0.00,,,0.00,weatherlink.com 1.10,2013-08-19 10:27:00,
2013-08-19 06:42:00,56.4,55.0,30.03,NNW,334,0.0,0.0,96,0.00,,,0.00,weatherlink.com 1.10,2013-08-19 10:42:00,
2013-08-19 06:57:00,56.8,56.0,30.04,NNW,335,0.0,0.0,96,0.00,,,0.00,weatherlink.com 1.10,2013-08-19 10:57:00,
2013-08-19 07:12:00,57.2,56.0,30.04,NNW,334,0.0,0.0,96,0.00,,,0.00,weatherlink.com 1.10,2013-08-19 11:12:00,
2013-08-19 07:27:00,57.8,57.0,30.04,NNW,334,0.0,0.0,97,0.00,,,0.00,weatherlink.com 1.10,2013-08-19 11:27:00,
2013-08-19 07:42:00,58.5,58.0,30.03,NNW,334,0.0,0.0,97,0.00,,,0.00,weatherlink.com 1.10,2013-08-19 11:42:00,
2013-08-19 07:57:00,59.3,59.0,30.03,NNW,334,0.0,0.0,97,0.00,,,0.00,weatherlink.com 1.10,2013-08-19 11:57:00,
2013-08-19 08:12:00,60.8,60.0,30.02,North,11,0.0,1.0,97,0.00,,,0.00,weatherlink.com 1.10,2013-08-19 12:12:00,
2013-08-19 08:27:00,63.0,61.0,30.03,North,5,0.0,3.0,92,0.00,,,0.00,weatherlink.com 1.10,2013-08-19 12:27:00,
2013-08-19 08:42:00,65.0,61.0,30.02,East,96,1.0,2.0,87,0.00,,,0.00,weatherlink.com 1.10,2013-08-19 12:42:00,
2013-08-19 08:57:00,66.2,62.0,30.02,NE,37,0.0,1.0,85,0.00,,,0.00,weatherlink.com 1.10,2013-08-19 12:57:00,
2013-08-19 09:12:00,67.1,62.0,30.01,SE,132,0.0,3.0,83,0.00,,,0.00,weatherlink.com 1.10,2013-08-19 13:12:00,
2013-08-19 09:27:00,68.2,62.0,30.02,SE,128,0.0,2.0,81,0.00,,,0.00,weatherlink.com 1.10,2013-08-19 13:27:00,
2013-08-19 09:42:00,69.4,63.0,30.01,WSW,253,0.0,0.0,79,0.00,,,0.00,weatherlink.com 1.10,2013-08-19 13:42:00,
2013-08-19 09:57:00,70.4,63.0,30.01,NNE,16,0.0,3.0,77,0.00,,,0.00,weatherlink.com 1.10,2013-08-19 13:57:00,
2013-08-19 10:12:00,71.9,63.0,30.01,North,349,0.0,2.0,74,0.00,,,0.00,weatherlink.com 1.10,2013-08-19 14:12:00,
2013-08-19 10:27:00,73.7,62.0,30.00,ESE,120,0.0,3.0,66,0.00,,,0.00,weatherlink.com 1.10,2013-08-19 14:27:00,
2013-08-19 10:42:00,74.8,63.0,30.00,NE,37,0.0,2.0,66,0.00,,,0.00,weatherlink.com 1.10,2013-08-19 14:42:00,
2013-08-19 10:57:00,75.0,61.0,30.00,North,4,3.0,6.0,63,0.00,,,0.00,weatherlink.com 1.10,2013-08-19 14:57:00,
2013-08-19 11:12:00,75.0,62.0,30.01,SE,143,0.0,4.0,64,0.00,,,0.00,weatherlink.com 1.10,2013-08-19 15:12:00,
2013-08-19 11:28:00,75.2,63.0,30.00,NNW,328,2.0,3.0,65,0.00,,,0.00,weatherlink.com 1.10,2013-08-19 15:28:00,
2013-08-19 11:43:00,75.1,61.0,30.00,NNW,330,1.0,3.0,62,0.00,,,0.00,weatherlink.com 1.10,2013-08-19 15:43:00,
2013-08-19 11:58:00,75.6,65.0,30.00,NNE,13,2.0,3.0,70,0.00,,,0.00,weatherlink.com 1.10,2013-08-19 15:58:00,
2013-08-19 12:13:00,76.6,64.0,29.99,West,266,0.0,3.0,66,0.00,,,0.00,weatherlink.com 1.10,2013-08-19 16:13:00,
2013-08-19 12:28:00,78.0,62.0,29.99,ESE,120,2.0,2.0,59,0.00,,,0.00,weatherlink.com 1.10,2013-08-19 16:28:00,
2013-08-19 12:43:00,77.8,63.0,29.99,North,356,3.0,5.0,61,0.00,,,0.00,weatherlink.com 1.10,2013-08-19 16:43:00,
2013-08-19 12:58:00,77.9,63.0,29.99,North,11,2.0,5.0,60,0.00,,,0.00,weatherlink.com 1.10,2013-08-19 16:58:00,
2013-08-19 13:13:00,78.5,63.0,29.98,North,8,3.0,4.0,60,0.00,,,0.00,weatherlink.com 1.10,2013-08-19 17:13:00,
2013-08-19 13:28:00,79.3,63.0,29.98,SSE,158,1.0,3.0,58,0.00,,,0.00,weatherlink.com 1.10,2013-08-19 17:28:00,
2013-08-19 13:43:00,80.4,64.0,29.97,ESE,117,1.0,5.0,58,0.00,,,0.00,weatherlink.com 1.10,2013-08-19 17:43:00,
2013-08-19 13:58:00,80.9,66.0,29.97,NE,39,0.0,1.0,61,0.00,,,0.00,weatherlink.com 1.10,2013-08-19 17:58:00,
2013-08-19 14:13:00,81.1,65.0,29.96,East,95,1.0,4.0,58,0.00,,,0.00,weatherlink.com 1.10,2013-08-19 18:13:00,
2013-08-19 14:28:00,81.6,65.0,29.96,ESE,121,1.0,3.0,58,0.00,,,0.00,weatherlink.com 1.10,2013-08-19 18:28:00,
2013-08-19 14:43:00,80.4,65.0,29.95,SE,127,0.0,3.0,60,0.00,,,0.00,weatherlink.com 1.10,2013-08-19 18:43:00,
2013-08-19 14:58:00,79.0,62.0,29.95,North,360,0.0,3.0,56,0.00,,,0.00,weatherlink.com 1.10,2013-08-19 18:58:00,
2013-08-19 15:13:00,79.9,65.0,29.95,SW,228,1.0,3.0,60,0.00,,,0.00,weatherlink.com 1.10,2013-08-19 19:13:00,
2013-08-19 15:28:00,80.5,64.0,29.95,SSE,147,0.0,1.0,57,0.00,,,0.00,weatherlink.com 1.10,2013-08-19 19:28:00,
2013-08-19 15:43:00,80.3,65.0,29.95,North,350,0.0,2.0,59,0.00,,,0.00,weatherlink.com 1.10,2013-08-19 19:43:00,
2013-08-19 15:58:00,80.9,66.0,29.95,NW,304,2.0,3.0,61,0.00,,,0.00,weatherlink.com 1.10,2013-08-19 19:58:00,
2013-08-19 16:13:00,80.7,65.0,29.95,SW,219,0.0,3.0,59,0.00,,,0.00,weatherlink.com 1.10,2013-08-19 20:13:00,
2013-08-19 16:28:00,80.3,64.0,29.94,North,354,2.0,3.0,57,0.00,,,0.00,weatherlink.com 1.10,2013-08-19 20:28:00,
2013-08-19 16:43:00,79.8,63.0,29.94,NNE,16,1.0,4.0,56,0.00,,,0.00,weatherlink.com 1.10,2013-08-19 20:43:00,
2013-08-19 16:58:00,79.2,62.0,29.94,SE,143,0.0,4.0,56,0.00,,,0.00,weatherlink.com 1.10,2013-08-19 20:58:00,
2013-08-19 17:13:00,78.8,63.0,29.93,East,93,0.0,1.0,59,0.00,,,0.00,weatherlink.com 1.10,2013-08-19 21:13:00,
2013-08-19 17:28:00,78.8,64.0,29.93,WNW,295,1.0,4.0,61,0.00,,,0.00,weatherlink.com 1.10,2013-08-19 21:28:00,
2013-08-19 17:43:00,78.3,64.0,29.94,ESE,110,0.0,3.0,62,0.00,,,0.00,weatherlink.com 1.10,2013-08-19 21:43:00,
2013-08-19 17:58:00,77.5,64.0,29.94,SE,136,0.0,1.0,64,0.00,,,0.00,weatherlink.com 1.10,2013-08-19 21:58:00,
2013-08-19 18:13:00,76.5,66.0,29.93,SE,136,0.0,0.0,69,0.00,,,0.00,weatherlink.com 1.10,2013-08-19 22:13:00,
2013-08-19 18:28:00,75.3,66.0,29.94,SE,137,0.0,0.0,72,0.00,,,0.00,weatherlink.com 1.10,2013-08-19 22:28:00,
2013-08-19 18:43:00,74.4,66.0,29.95,SE,136,0.0,0.0,75,0.00,,,0.00,weatherlink.com 1.10,2013-08-19 22:43:00,
2013-08-19 18:58:00,73.6,66.0,29.95,SE,137,0.0,0.0,77,0.00,,,0.00,weatherlink.com 1.10,2013-08-19 22:58:00,
2013-08-19 19:13:00,72.9,66.0,29.96,SE,136,0.0,0.0,78,0.00,,,0.00,weatherlink.com 1.10,2013-08-19 23:13:00,
2013-08-19 19:28:00,72.0,65.0,29.96,SE,136,0.0,0.0,78,0.00,,,0.00,weatherlink.com 1.10,2013-08-19 23:28:00,
2013-08-19 19:43:00,70.9,65.0,29.96,SE,136,0.0,0.0,81,0.00,,,0.00,weatherlink.com 1.10,2013-08-19 23:43:00,
2013-08-19 19:58:00,69.6,64.0,29.96,SE,137,0.0,0.0,81,0.00,,,0.00,weatherlink.com 1.10,2013-08-19 23:58:00,
2013-08-19 20:13:00,68.6,63.0,29.96,SE,136,0.0,0.0,82,0.00,,,0.00,weatherlink.com 1.10,2013-08-20 00:13:00,
2013-08-19 20:28:00,67.6,63.0,29.96,SE,136,0.0,0.0,84,0.00,,,0.00,weatherlink.com 1.10,2013-08-20 00:28:00,
2013-08-19 20:43:00,66.7,62.0,29.96,SE,136,0.0,0.0,85,0.00,,,0.00,weatherlink.com 1.10,2013-08-20 00:43:00,
2013-08-19 20:58:00,66.1,62.0,29.96,SE,136,0.0,0.0,85,0.00,,,0.00,weatherlink.com 1.10,2013-08-20 00:58:00,
2013-08-19 21:13:00,65.5,62.0,29.97,SE,136,0.0,0.0,87,0.00,,,0.00,weatherlink.com 1.10,2013-08-20 01:13:00,
2013-08-19 21:28:00,65.0,62.0,29.97,SE,136,0.0,0.0,89,0.00,,,0.00,weatherlink.com 1.10,2013-08-20 01:28:00,
2013-08-19 21:43:00,64.5,62.0,29.97,SE,136,0.0,0.0,90,0.00,,,0.00,weatherlink.com 1.10,2013-08-20 01:43:00,
2013-08-19 21:58:00,64.1,61.0,29.97,SE,136,0.0,0.0,90,0.00,,,0.00,weatherlink.com 1.10,2013-08-20 01:58:00,
2013-08-19 22:13:00,64.0,61.0,29.97,SE,136,0.0,0.0,90,0.00,,,0.00,weatherlink.com 1.10,2013-08-20 02:13:00,
2013-08-19 22:28:00,63.8,61.0,29.97,SE,136,0.0,0.0,90,0.00,,,0.00,weatherlink.com 1.10,2013-08-20 02:28:00,
2013-08-19 22:43:00,63.5,61.0,29.97,SE,136,0.0,0.0,90,0.00,,,0.00,weatherlink.com 1.10,2013-08-20 02:43:00,
2013-08-19 22:58:00,63.3,61.0,29.97,SE,136,0.0,0.0,91,0.00,,,0.00,weatherlink.com 1.10,2013-08-20 02:58:00,
2013-08-19 23:13:00,63.0,60.0,29.97,SE,136,0.0,1.0,91,0.00,,,0.00,weatherlink.com 1.10,2013-08-20 03:13:00,
2013-08-19 23:28:00,63.0,61.0,29.97,SE,137,0.0,0.0,92,0.00,,,0.00,weatherlink.com 1.10,2013-08-20 03:28:00,
2013-08-19 23:43:00,62.8,61.0,29.97,SE,136,0.0,0.0,92,0.00,,,0.00,weatherlink.com 1.10,2013-08-20 03:43:00,
2013-08-19 23:58:00,62.5,60.0,29.97,SE,137,0.0,0.0,92,0.00,,,0.00,weatherlink.com 1.10,2013-08-20 03:58:00,